createdAt,value
2023-05-04T00:00:56.713Z,3.88
2023-05-04T00:01:57.047Z,3.84
2023-05-04T00:02:57.467Z,3.81
2023-05-04T00:03:57.873Z,3.80
2023-05-04T00:04:58.146Z,3.78
2023-05-04T00:05:58.486Z,3.76
2023-05-04T00:06:58.836Z,3.73
2023-05-04T00:07:59.165Z,3.73
2023-05-04T00:08:59.486Z,3.73
2023-05-04T00:09:59.836Z,3.73
2023-05-04T00:11:00.178Z,3.70
2023-05-04T00:12:00.536Z,3.69
2023-05-04T00:13:00.962Z,3.69
2023-05-04T00:14:01.246Z,3.69
2023-05-04T00:15:01.629Z,3.70
2023-05-04T00:16:01.966Z,3.69
2023-05-04T00:17:02.259Z,3.69
2023-05-04T00:18:02.627Z,3.66
2023-05-04T00:19:02.949Z,3.65
2023-05-04T00:20:03.483Z,3.63
2023-05-04T00:21:03.651Z,3.60
2023-05-04T00:22:03.990Z,3.62
2023-05-04T00:23:04.365Z,3.59
2023-05-04T00:24:04.663Z,3.59
2023-05-04T00:25:05.005Z,3.55
2023-05-04T00:26:05.382Z,3.53
2023-05-04T00:27:05.705Z,3.58
2023-05-04T00:28:06.051Z,3.56
2023-05-04T00:29:06.417Z,3.55
2023-05-04T00:30:06.846Z,3.56
2023-05-04T00:31:07.238Z,3.56
2023-05-04T00:32:07.568Z,3.56
2023-05-04T00:33:07.865Z,3.58
2023-05-04T00:34:08.182Z,3.59
2023-05-04T00:35:08.525Z,3.60
2023-05-04T00:36:08.913Z,3.59
2023-05-04T00:37:09.252Z,3.55
2023-05-04T00:38:09.600Z,3.53
2023-05-04T00:39:09.950Z,3.48
2023-05-04T00:40:10.327Z,3.45
2023-05-04T00:41:10.666Z,3.42
2023-05-04T00:42:11.011Z,3.36
2023-05-04T00:43:11.354Z,3.34
2023-05-04T00:44:11.695Z,3.34
2023-05-04T00:45:12.078Z,3.32
2023-05-04T00:46:12.422Z,3.31
2023-05-04T00:47:12.791Z,3.29
2023-05-04T00:48:13.160Z,3.26
2023-05-04T00:49:13.469Z,3.26
2023-05-04T00:50:13.833Z,3.25
2023-05-04T00:51:14.235Z,3.22
2023-05-04T00:52:14.541Z,3.21
2023-05-04T00:53:14.862Z,3.22
2023-05-04T00:54:15.205Z,3.22
2023-05-04T00:55:15.542Z,3.22
2023-05-04T00:56:15.989Z,3.21
2023-05-04T00:57:16.266Z,3.22
2023-05-04T00:58:16.581Z,3.23
2023-05-04T00:59:16.918Z,3.22
2023-05-04T01:00:17.255Z,3.21
2023-05-04T01:01:17.703Z,3.16
2023-05-04T01:02:17.969Z,3.14
2023-05-04T01:03:18.451Z,3.13
2023-05-04T01:04:18.646Z,3.11
2023-05-04T01:05:19.014Z,3.11
2023-05-04T01:06:19.364Z,3.08
2023-05-04T01:07:19.711Z,3.08
2023-05-04T01:08:20.048Z,3.07
2023-05-04T01:09:20.411Z,3.05
2023-05-04T01:10:20.749Z,3.04
2023-05-04T01:11:21.116Z,3.05
2023-05-04T01:12:21.467Z,3.01
2023-05-04T01:13:21.807Z,3.01
2023-05-04T01:14:22.162Z,3.00
2023-05-04T01:15:22.515Z,2.98
2023-05-04T01:16:22.894Z,2.98
2023-05-04T01:17:23.223Z,2.97
2023-05-04T01:18:23.564Z,2.98
2023-05-04T01:19:23.908Z,3.00
2023-05-04T01:20:24.262Z,3.00
2023-05-04T01:21:24.623Z,3.00
2023-05-04T01:22:24.998Z,2.95
2023-05-04T01:23:25.296Z,2.95
2023-05-04T01:24:25.628Z,2.95
2023-05-04T01:25:25.966Z,2.93
2023-05-04T01:26:26.353Z,2.90
2023-05-04T01:27:26.710Z,2.87
2023-05-04T01:28:27.034Z,2.86
2023-05-04T01:29:27.380Z,2.87
2023-05-04T01:30:27.726Z,2.86
2023-05-04T01:31:28.142Z,2.86
2023-05-04T01:32:28.410Z,2.86
2023-05-04T01:33:28.753Z,2.85
2023-05-04T01:34:29.096Z,2.83
2023-05-04T01:35:29.421Z,2.85
2023-05-04T01:36:29.799Z,2.82
2023-05-04T01:37:30.126Z,2.82
2023-05-04T01:38:30.458Z,2.75
2023-05-04T01:39:30.788Z,2.74
2023-05-04T01:40:31.146Z,2.72
2023-05-04T01:41:31.539Z,2.72
2023-05-04T01:42:31.849Z,2.75
2023-05-04T01:43:32.187Z,2.75
2023-05-04T01:44:32.542Z,2.74
2023-05-04T01:45:32.886Z,2.74
2023-05-04T01:46:33.299Z,2.72
2023-05-04T01:47:33.574Z,2.72
2023-05-04T01:48:33.919Z,2.77
2023-05-04T01:49:34.258Z,2.77
2023-05-04T01:50:34.606Z,2.75
2023-05-04T01:51:35.027Z,2.75
2023-05-04T01:52:35.325Z,2.74
2023-05-04T01:53:35.688Z,2.71
2023-05-04T01:54:36.012Z,2.68
2023-05-04T01:55:36.372Z,2.69
2023-05-04T01:56:36.780Z,2.71
2023-05-04T01:57:37.082Z,2.71
2023-05-04T01:58:37.426Z,2.67
2023-05-04T01:59:37.755Z,2.62
2023-05-04T02:00:38.107Z,2.62
2023-05-04T02:01:38.555Z,2.60
2023-05-04T02:02:38.860Z,2.56
2023-05-04T02:03:39.196Z,2.54
2023-05-04T02:04:39.495Z,2.53
2023-05-04T02:05:39.879Z,2.50
2023-05-04T02:06:40.186Z,2.50
2023-05-04T02:07:40.501Z,2.49
2023-05-04T02:08:40.846Z,2.51
2023-05-04T02:09:41.199Z,2.49
2023-05-04T02:10:41.531Z,2.50
2023-05-04T02:11:41.894Z,2.50
2023-05-04T02:12:42.274Z,2.50
2023-05-04T02:13:42.584Z,2.50
2023-05-04T02:14:42.932Z,2.49
2023-05-04T02:15:43.316Z,2.49
2023-05-04T02:16:43.647Z,2.49
2023-05-04T02:17:44.081Z,2.51
2023-05-04T02:18:44.331Z,2.51
2023-05-04T02:19:44.658Z,2.51
2023-05-04T02:20:44.999Z,2.47
2023-05-04T02:21:45.364Z,2.46
2023-05-04T02:22:45.702Z,2.44
2023-05-04T02:23:46.047Z,2.46
2023-05-04T02:24:46.383Z,2.50
2023-05-04T02:25:46.753Z,2.50
2023-05-04T02:26:47.103Z,2.49
2023-05-04T02:27:47.445Z,2.46
2023-05-04T02:28:47.774Z,2.47
2023-05-04T02:29:48.119Z,2.44
2023-05-04T02:30:48.454Z,2.44
2023-05-04T02:31:48.868Z,2.43
2023-05-04T02:32:49.203Z,2.42
2023-05-04T02:33:49.484Z,2.44
2023-05-04T02:34:49.846Z,2.46
2023-05-04T02:35:50.247Z,2.47
2023-05-04T02:36:50.557Z,2.46
2023-05-04T02:37:50.891Z,2.47
2023-05-04T02:38:51.242Z,2.46
2023-05-04T02:39:51.578Z,2.43
2023-05-04T02:40:51.916Z,2.43
2023-05-04T02:41:52.279Z,2.44
2023-05-04T02:42:52.632Z,2.44
2023-05-04T02:43:52.988Z,2.46
2023-05-04T02:44:53.324Z,2.46
2023-05-04T02:45:53.667Z,2.49
2023-05-04T02:46:54.020Z,2.46
2023-05-04T02:47:54.418Z,2.49
2023-05-04T02:48:54.695Z,2.47
2023-05-04T02:49:55.119Z,2.44
2023-05-04T02:50:55.391Z,2.46
2023-05-04T02:51:55.822Z,2.44
2023-05-04T02:52:56.124Z,2.46
2023-05-04T02:53:56.499Z,2.46
2023-05-04T02:54:56.813Z,2.49
2023-05-04T02:55:57.159Z,2.46
2023-05-04T02:56:57.445Z,2.42
2023-05-04T02:57:57.697Z,2.42
2023-05-04T02:58:57.980Z,2.38
2023-05-04T02:59:58.271Z,2.33
2023-05-04T03:00:58.638Z,2.36
2023-05-04T03:01:58.981Z,2.35
2023-05-04T03:02:59.281Z,2.33
2023-05-04T03:03:59.573Z,2.33
2023-05-04T03:04:59.799Z,2.32
2023-05-04T03:06:00.155Z,2.31
2023-05-04T03:07:00.418Z,2.31
2023-05-04T03:08:01.361Z,2.35
2023-05-04T03:09:00.924Z,2.33
2023-05-04T03:10:01.238Z,2.33
2023-05-04T03:11:01.550Z,2.31
2023-05-04T03:12:01.784Z,2.28
2023-05-04T03:13:02.092Z,2.26
2023-05-04T03:14:02.363Z,2.26
2023-05-04T03:15:02.623Z,2.26
2023-05-04T03:16:02.963Z,2.25
2023-05-04T03:17:03.223Z,2.22
2023-05-04T03:18:03.537Z,2.22
2023-05-04T03:19:03.774Z,2.24
2023-05-04T03:20:04.333Z,2.25
2023-05-04T03:21:04.351Z,2.24
2023-05-04T03:22:04.542Z,2.24
2023-05-04T03:23:04.798Z,2.18
2023-05-04T03:24:05.100Z,2.18
2023-05-04T03:25:05.396Z,2.17
2023-05-04T03:26:05.730Z,2.17
2023-05-04T03:27:05.885Z,2.14
2023-05-04T03:28:06.177Z,2.14
2023-05-04T03:29:06.452Z,2.17
2023-05-04T03:30:06.906Z,2.20
2023-05-04T03:31:07.029Z,2.24
2023-05-04T03:32:07.263Z,2.25
2023-05-04T03:33:07.478Z,2.26
2023-05-04T03:34:07.672Z,2.25
2023-05-04T03:35:07.850Z,2.25
2023-05-04T03:36:08.005Z,2.24
2023-05-04T03:37:08.317Z,2.25
2023-05-04T03:38:08.465Z,2.24
2023-05-04T03:39:08.746Z,2.20
2023-05-04T03:40:09.034Z,2.20
2023-05-04T03:41:09.355Z,2.20
2023-05-04T03:42:09.517Z,2.18
2023-05-04T03:43:09.679Z,2.18
2023-05-04T03:44:09.855Z,2.20
2023-05-04T03:45:10.035Z,2.18
2023-05-04T03:46:10.223Z,2.18
2023-05-04T03:47:10.386Z,2.17
2023-05-04T03:48:10.622Z,2.15
2023-05-04T03:49:10.823Z,2.17
2023-05-04T03:50:10.991Z,2.14
2023-05-04T03:51:11.186Z,2.14
2023-05-04T03:52:11.385Z,2.15
2023-05-04T03:53:11.509Z,2.15
2023-05-04T03:54:11.683Z,2.15
2023-05-04T03:55:11.877Z,2.17
2023-05-04T03:56:12.136Z,2.13
2023-05-04T03:57:12.352Z,2.13
2023-05-04T03:58:12.478Z,2.13
2023-05-04T03:59:12.660Z,2.11
2023-05-04T04:00:12.823Z,2.10
2023-05-04T04:01:12.999Z,2.13
2023-05-04T04:02:13.353Z,2.18
2023-05-04T04:03:13.862Z,2.18
2023-05-04T04:04:13.972Z,2.20
2023-05-04T04:05:14.078Z,2.18
2023-05-04T04:06:14.373Z,2.20
2023-05-04T04:07:14.546Z,2.18
2023-05-04T04:08:14.699Z,2.15
2023-05-04T04:09:14.983Z,2.08
2023-05-04T04:10:15.277Z,2.06
2023-05-04T04:11:15.455Z,2.07
2023-05-04T04:12:15.649Z,2.07
2023-05-04T04:13:15.946Z,2.08
2023-05-04T04:14:16.100Z,2.08
2023-05-04T04:15:16.382Z,2.11
2023-05-04T04:16:16.606Z,2.15
2023-05-04T04:17:16.893Z,2.17
2023-05-04T04:18:17.085Z,2.26
2023-05-04T04:19:17.389Z,2.36
2023-05-04T04:20:17.664Z,2.44
2023-05-04T04:21:17.829Z,2.49
2023-05-04T04:22:18.012Z,2.57
2023-05-04T04:23:18.201Z,2.65
2023-05-04T04:24:18.364Z,2.68
2023-05-04T04:25:18.661Z,2.72
2023-05-04T04:26:18.853Z,2.74
2023-05-04T04:27:19.193Z,2.85
2023-05-04T04:28:19.341Z,2.92
2023-05-04T04:29:19.641Z,2.95
2023-05-04T04:30:19.936Z,3.03
2023-05-04T04:31:20.295Z,3.10
2023-05-04T04:32:20.549Z,3.16
2023-05-04T04:33:20.707Z,3.19
2023-05-04T04:34:21.003Z,3.16
2023-05-04T04:35:21.307Z,3.13
2023-05-04T04:36:21.604Z,3.14
2023-05-04T04:37:21.781Z,3.14
2023-05-04T04:38:21.952Z,3.19
2023-05-04T04:39:22.319Z,3.22
2023-05-04T04:40:22.429Z,3.25
2023-05-04T04:41:22.731Z,3.26
2023-05-04T04:42:22.937Z,3.32
2023-05-04T04:43:23.100Z,3.40
2023-05-04T04:44:23.398Z,3.48
2023-05-04T04:45:23.742Z,3.58
2023-05-04T04:46:24.049Z,3.68
2023-05-04T04:47:24.352Z,3.74
2023-05-04T04:48:24.487Z,3.80
2023-05-04T04:49:24.779Z,3.88
2023-05-04T04:50:25.084Z,3.99
2023-05-04T04:51:25.373Z,4.06
2023-05-04T04:52:25.709Z,4.19
2023-05-04T04:53:25.988Z,4.31
2023-05-04T04:54:26.151Z,4.41
2023-05-04T04:55:26.346Z,4.45
2023-05-04T04:56:26.526Z,4.49
2023-05-04T04:57:26.717Z,4.52
2023-05-04T04:58:26.861Z,4.50
2023-05-04T04:59:27.165Z,4.49
2023-05-04T05:00:27.376Z,4.50
2023-05-04T05:01:27.570Z,4.60
2023-05-04T05:02:27.871Z,4.63
2023-05-04T05:03:28.016Z,4.71
2023-05-04T05:04:28.379Z,4.75
2023-05-04T05:05:30.310Z,4.75
2023-05-04T05:06:28.913Z,4.90
2023-05-04T05:07:29.234Z,4.97
2023-05-04T05:08:29.429Z,4.99
2023-05-04T05:09:29.582Z,5.00
2023-05-04T05:10:29.764Z,4.97
2023-05-04T05:11:29.981Z,4.90
2023-05-04T05:12:30.171Z,4.86
2023-05-04T05:13:30.334Z,4.78
2023-05-04T05:14:30.650Z,4.77
2023-05-04T05:15:30.826Z,4.92
2023-05-04T05:16:31.140Z,4.93
2023-05-04T05:17:31.490Z,4.97
2023-05-04T05:18:31.724Z,5.05
2023-05-04T05:19:31.888Z,5.18
2023-05-04T05:20:32.200Z,5.30
2023-05-04T05:21:32.369Z,5.38
2023-05-04T05:22:32.697Z,5.46
2023-05-04T05:23:32.978Z,5.46
2023-05-04T05:24:33.294Z,5.51
2023-05-04T05:25:33.563Z,5.62
2023-05-04T05:26:33.890Z,5.73
2023-05-04T05:27:34.168Z,5.87
2023-05-04T05:28:34.332Z,5.89
2023-05-04T05:29:34.637Z,5.99
2023-05-04T05:30:34.987Z,6.26
2023-05-04T05:31:35.222Z,6.41
2023-05-04T05:32:35.574Z,6.60
2023-05-04T05:33:35.815Z,6.75
2023-05-04T05:34:36.119Z,6.92
2023-05-04T05:35:36.309Z,7.13
2023-05-04T05:36:36.597Z,7.25
2023-05-04T05:37:36.906Z,7.38
2023-05-04T05:38:37.097Z,7.51
2023-05-04T05:39:37.248Z,7.63
2023-05-04T05:40:37.598Z,7.73
2023-05-04T05:41:37.733Z,7.85
2023-05-04T05:42:38.050Z,8.00
2023-05-04T05:43:38.218Z,8.16
2023-05-04T05:44:38.517Z,8.23
2023-05-04T05:45:38.826Z,8.36
2023-05-04T05:46:39.307Z,8.56
2023-05-04T05:47:39.352Z,8.71
2023-05-04T05:48:39.489Z,8.74
2023-05-04T05:49:39.788Z,8.91
2023-05-04T05:50:39.953Z,9.10
2023-05-04T05:51:40.282Z,9.31
2023-05-04T05:52:40.477Z,9.48
2023-05-04T05:53:40.728Z,9.65
2023-05-04T05:54:41.026Z,9.84
2023-05-04T05:55:41.329Z,9.84
2023-05-04T05:56:41.509Z,9.86
2023-05-04T05:57:41.846Z,9.79
2023-05-04T05:58:42.099Z,9.89
2023-05-04T05:59:42.266Z,9.99
2023-05-04T06:00:42.634Z,9.83
2023-05-04T06:01:42.862Z,9.76
2023-05-04T06:02:43.257Z,9.92
2023-05-04T06:03:43.529Z,9.84
2023-05-04T06:04:43.568Z,9.83
2023-05-04T06:05:43.700Z,9.83
2023-05-04T06:06:45.890Z,9.89
2023-05-04T06:07:44.210Z,9.92
2023-05-04T06:08:44.389Z,9.98
2023-05-04T06:09:44.564Z,9.95
2023-05-04T06:10:44.873Z,9.99
2023-05-04T06:11:45.060Z,10.05
2023-05-04T06:12:45.286Z,10.12
2023-05-04T06:13:45.409Z,10.16
2023-05-04T06:14:45.611Z,10.17
2023-05-04T06:15:45.785Z,10.12
2023-05-04T06:16:46.080Z,10.10
2023-05-04T06:17:46.212Z,10.13
2023-05-04T06:18:46.319Z,10.12
2023-05-04T06:19:48.085Z,10.05
2023-05-04T06:20:46.739Z,10.07
2023-05-04T06:21:46.856Z,9.99
2023-05-04T06:22:47.067Z,10.05
2023-05-04T06:23:47.213Z,10.02
2023-05-04T06:24:47.409Z,10.10
2023-05-04T06:25:47.604Z,10.13
2023-05-04T06:26:47.789Z,10.09
2023-05-04T06:27:47.999Z,10.07
2023-05-04T06:28:48.144Z,10.13
2023-05-04T06:29:48.337Z,10.09
2023-05-04T06:30:48.581Z,10.10
2023-05-04T06:31:48.800Z,10.07
2023-05-04T06:32:48.977Z,10.16
2023-05-04T06:33:49.102Z,10.16
2023-05-04T06:34:49.307Z,10.10
2023-05-04T06:35:49.476Z,10.16
2023-05-04T06:36:49.671Z,10.16
2023-05-04T06:38:50.030Z,10.28
2023-05-04T06:39:50.222Z,10.26
2023-05-04T06:40:50.408Z,10.28
2023-05-04T06:41:50.579Z,10.28
2023-05-04T06:42:50.790Z,10.41
2023-05-04T06:43:50.960Z,10.56
2023-05-04T06:44:51.141Z,10.51
2023-05-04T06:45:51.391Z,10.59
2023-05-04T06:46:51.532Z,10.64
2023-05-04T06:47:51.808Z,10.63
2023-05-04T06:48:51.918Z,10.68
2023-05-04T06:49:52.092Z,10.71
2023-05-04T06:50:52.286Z,10.68
2023-05-04T06:51:52.523Z,10.75
2023-05-04T06:52:52.798Z,10.72
2023-05-04T06:53:52.826Z,10.78
2023-05-04T06:54:53.016Z,10.89
2023-05-04T06:55:53.198Z,10.82
2023-05-04T06:56:53.389Z,10.87
2023-05-04T06:57:53.594Z,10.87
2023-05-04T06:58:53.747Z,10.75
2023-05-04T06:59:53.938Z,10.67
2023-05-04T07:00:54.134Z,10.74
2023-05-04T07:01:54.294Z,10.84
2023-05-04T07:02:54.540Z,10.82
2023-05-04T07:03:54.701Z,10.96
2023-05-04T07:04:54.869Z,11.07
2023-05-04T07:05:55.084Z,11.10
2023-05-04T07:06:55.252Z,11.12
2023-05-04T07:07:55.455Z,11.17
2023-05-04T07:08:55.611Z,11.11
2023-05-04T07:09:55.796Z,11.15
2023-05-04T07:10:56.060Z,10.99
2023-05-04T07:11:56.164Z,11.04
2023-05-04T07:12:56.397Z,11.10
2023-05-04T07:13:56.525Z,11.15
2023-05-04T07:14:56.709Z,11.25
2023-05-04T07:15:56.928Z,11.19
2023-05-04T07:16:57.096Z,11.08
2023-05-04T07:17:57.344Z,11.11
2023-05-04T07:18:57.484Z,11.08
2023-05-04T07:19:57.679Z,11.04
2023-05-04T07:21:10.816Z,11.02
2023-05-04T07:21:57.961Z,11.11
2023-05-04T07:22:58.175Z,11.19
2023-05-04T07:23:58.338Z,11.32
2023-05-04T07:24:58.503Z,11.25
2023-05-04T07:25:58.680Z,11.27
2023-05-04T07:26:58.876Z,11.19
2023-05-04T07:27:59.123Z,11.27
2023-05-04T07:28:59.239Z,11.32
2023-05-04T07:29:59.462Z,11.29
2023-05-04T07:30:59.625Z,11.32
2023-05-04T07:31:59.849Z,11.36
2023-05-04T07:33:00.042Z,11.29
2023-05-04T07:34:00.170Z,11.35
2023-05-04T07:35:00.354Z,11.52
2023-05-04T07:36:00.527Z,11.69
2023-05-04T07:37:00.701Z,11.84
2023-05-04T07:38:00.907Z,11.66
2023-05-04T07:39:01.067Z,11.54
2023-05-04T07:40:01.244Z,11.52
2023-05-04T07:41:01.447Z,11.72
2023-05-04T07:42:01.614Z,11.95
2023-05-04T07:43:01.823Z,12.06
2023-05-04T07:44:01.981Z,11.99
2023-05-04T07:45:02.168Z,12.00
2023-05-04T07:46:02.369Z,11.91
2023-05-04T07:47:02.543Z,11.88
2023-05-04T07:48:02.814Z,11.86
2023-05-04T07:49:02.919Z,12.10
2023-05-04T07:50:03.205Z,12.09
2023-05-04T07:51:03.309Z,12.15
2023-05-04T07:52:03.521Z,12.13
2023-05-04T07:53:03.726Z,12.03
2023-05-04T07:54:03.843Z,11.97
2023-05-04T07:55:04.018Z,12.03
2023-05-04T07:56:04.233Z,12.17
2023-05-04T07:57:04.405Z,12.39
2023-05-04T07:58:04.581Z,12.49
2023-05-04T07:59:04.761Z,12.40
2023-05-04T08:00:05.326Z,12.46
2023-05-04T08:01:05.136Z,12.50
2023-05-04T08:02:05.310Z,12.32
2023-05-04T08:03:05.662Z,12.40
2023-05-04T08:04:05.693Z,12.55
2023-05-04T08:05:05.865Z,12.68
2023-05-04T08:06:06.116Z,12.67
2023-05-04T08:07:06.254Z,12.85
2023-05-04T08:08:06.459Z,13.00
2023-05-04T08:09:06.689Z,12.97
2023-05-04T08:10:06.926Z,12.93
2023-05-04T08:11:19.246Z,12.94
2023-05-04T08:12:07.135Z,13.05
2023-05-04T08:13:07.347Z,12.90
2023-05-04T08:14:07.481Z,12.86
2023-05-04T08:15:07.675Z,12.62
2023-05-04T08:16:07.857Z,12.78
2023-05-04T08:17:08.031Z,12.78
2023-05-04T08:18:08.249Z,12.86
2023-05-04T08:19:08.435Z,13.01
2023-05-04T08:20:08.613Z,13.05
2023-05-04T08:21:08.801Z,13.08
2023-05-04T08:22:08.993Z,13.11
2023-05-04T08:23:09.191Z,13.00
2023-05-04T08:24:09.339Z,12.83
2023-05-04T08:25:09.518Z,12.90
2023-05-04T08:26:09.716Z,13.12
2023-05-04T08:27:09.962Z,13.11
2023-05-04T08:28:10.138Z,13.11
2023-05-04T08:29:10.285Z,13.18
2023-05-04T08:30:10.436Z,13.19
2023-05-04T08:31:10.651Z,13.09
2023-05-04T08:33:09.157Z,12.98
2023-05-04T08:34:10.341Z,13.19
2023-05-04T08:35:10.471Z,13.27
2023-05-04T08:36:10.655Z,13.20
2023-05-04T08:37:10.846Z,13.49
2023-05-04T08:38:11.025Z,13.65
2023-05-04T08:39:11.217Z,13.83
2023-05-04T08:40:11.404Z,14.00
2023-05-04T08:41:11.588Z,14.04
2023-05-04T08:42:11.793Z,13.79
2023-05-04T08:43:11.960Z,13.87
2023-05-04T08:44:12.175Z,13.99
2023-05-04T08:45:12.349Z,14.04
2023-05-04T08:46:12.577Z,13.87
2023-05-04T08:47:12.729Z,13.85
2023-05-04T08:48:12.945Z,13.62
2023-05-04T08:49:13.155Z,13.75
2023-05-04T08:50:13.335Z,14.03
2023-05-04T08:51:13.520Z,14.07
2023-05-04T08:52:13.722Z,14.00
2023-05-04T08:53:13.975Z,13.89
2023-05-04T08:54:14.142Z,13.95
2023-05-04T08:55:14.301Z,14.11
2023-05-04T08:56:14.466Z,14.40
2023-05-04T08:57:14.665Z,14.59
2023-05-04T08:58:14.839Z,14.44
2023-05-04T08:59:15.042Z,14.63
2023-05-04T09:00:15.204Z,14.70
2023-05-04T09:01:15.499Z,14.77
2023-05-04T09:02:15.600Z,14.50
2023-05-04T09:03:15.827Z,14.45
2023-05-04T09:04:15.980Z,14.32
2023-05-04T09:05:16.143Z,14.45
2023-05-04T09:06:16.340Z,14.60
2023-05-04T09:07:16.538Z,14.68
2023-05-04T09:08:16.742Z,14.70
2023-05-04T09:09:16.987Z,14.43
2023-05-04T09:10:17.162Z,14.53
2023-05-04T09:11:17.332Z,14.68
2023-05-04T09:12:17.532Z,14.58
2023-05-04T09:13:17.805Z,14.59
2023-05-04T09:14:17.931Z,14.58
2023-05-04T09:15:18.144Z,14.78
2023-05-04T09:16:18.334Z,14.29
2023-05-04T09:17:18.521Z,14.44
2023-05-04T09:18:18.799Z,14.47
2023-05-04T09:19:18.929Z,14.40
2023-05-04T09:20:19.121Z,14.50
2023-05-04T09:21:19.331Z,14.62
2023-05-04T09:22:19.566Z,14.86
2023-05-04T09:23:19.769Z,14.99
2023-05-04T09:24:19.969Z,15.06
2023-05-04T09:25:20.140Z,15.24
2023-05-04T09:26:20.357Z,15.09
2023-05-04T09:27:20.566Z,14.97
2023-05-04T09:28:20.779Z,14.45
2023-05-04T09:29:21.018Z,14.63
2023-05-04T09:30:21.193Z,14.86
2023-05-04T09:31:21.467Z,14.84
2023-05-04T09:32:21.664Z,14.73
2023-05-04T09:33:21.782Z,14.59
2023-05-04T09:34:22.017Z,14.65
2023-05-04T09:35:32.441Z,14.33
2023-05-04T09:36:22.404Z,14.17
2023-05-04T09:37:22.586Z,14.41
2023-05-04T09:38:22.758Z,14.58
2023-05-04T09:39:22.990Z,14.47
2023-05-04T09:40:23.174Z,14.41
2023-05-04T09:41:23.371Z,14.77
2023-05-04T09:42:23.580Z,15.37
2023-05-04T09:43:23.813Z,15.44
2023-05-04T09:44:24.084Z,14.92
2023-05-04T09:45:24.166Z,14.86
2023-05-04T09:46:24.425Z,14.60
2023-05-04T09:47:24.584Z,14.58
2023-05-04T09:48:24.772Z,14.82
2023-05-04T09:49:24.997Z,14.79
2023-05-04T09:50:25.158Z,14.85
2023-05-04T09:51:25.378Z,15.18
2023-05-04T09:52:25.676Z,15.54
2023-05-04T09:53:25.783Z,15.94
2023-05-04T09:54:26.035Z,15.91
2023-05-04T09:55:26.175Z,15.92
2023-05-04T09:56:26.386Z,15.10
2023-05-04T09:57:26.594Z,15.39
2023-05-04T09:58:26.790Z,14.92
2023-05-04T09:59:27.033Z,14.70
2023-05-04T10:00:27.213Z,15.06
2023-05-04T10:01:27.445Z,15.29
2023-05-04T10:02:27.718Z,15.39
2023-05-04T10:03:27.845Z,15.52
2023-05-04T10:04:28.065Z,15.80
2023-05-04T10:05:28.262Z,16.09
2023-05-04T10:06:28.418Z,16.15
2023-05-04T10:07:28.652Z,16.56
2023-05-04T10:08:28.815Z,16.23
2023-05-04T10:09:29.041Z,15.72
2023-05-04T10:10:29.209Z,15.97
2023-05-04T10:11:29.447Z,15.44
2023-05-04T10:12:29.684Z,15.82
2023-05-04T10:13:29.810Z,15.98
2023-05-04T10:14:30.081Z,15.76
2023-05-04T10:15:30.228Z,15.73
2023-05-04T10:16:30.558Z,15.76
2023-05-04T10:17:30.670Z,16.17
2023-05-04T10:18:30.892Z,16.54
2023-05-04T10:19:31.076Z,16.00
2023-05-04T10:20:31.263Z,15.39
2023-05-04T10:21:31.478Z,15.51
2023-05-04T10:22:31.684Z,15.90
2023-05-04T10:23:31.898Z,16.24
2023-05-04T10:24:32.126Z,15.79
2023-05-04T10:25:32.309Z,16.01
2023-05-04T10:26:32.479Z,15.59
2023-05-04T10:27:32.692Z,15.75
2023-05-04T10:28:32.897Z,15.92
2023-05-04T10:29:33.136Z,16.05
2023-05-04T10:30:33.437Z,16.15
2023-05-04T10:31:33.560Z,16.21
2023-05-04T10:32:33.710Z,16.17
2023-05-04T10:33:33.863Z,16.39
2023-05-04T10:34:34.094Z,16.64
2023-05-04T10:35:34.257Z,16.72
2023-05-04T10:36:34.476Z,16.79
2023-05-04T10:37:34.684Z,16.69
2023-05-04T10:38:34.903Z,16.54
2023-05-04T10:39:35.129Z,16.56
2023-05-04T10:40:35.298Z,16.39
2023-05-04T10:41:35.495Z,16.58
2023-05-04T10:42:35.715Z,16.42
2023-05-04T10:43:35.916Z,16.94
2023-05-04T10:44:36.145Z,16.97
2023-05-04T10:45:36.386Z,17.16
2023-05-04T10:46:36.552Z,16.66
2023-05-04T10:47:36.760Z,16.04
2023-05-04T10:48:36.941Z,15.94
2023-05-04T10:49:37.155Z,15.59
2023-05-04T10:50:37.322Z,15.39
2023-05-04T10:51:48.639Z,15.77
2023-05-04T10:52:37.753Z,15.90
2023-05-04T10:53:37.976Z,16.36
2023-05-04T10:54:38.196Z,16.01
2023-05-04T10:55:38.340Z,15.82
2023-05-04T10:56:38.558Z,15.62
2023-05-04T10:57:38.768Z,15.42
2023-05-04T10:58:38.964Z,15.58
2023-05-04T10:59:39.201Z,15.86
2023-05-04T11:00:39.485Z,15.97
2023-05-04T11:01:39.652Z,15.92
2023-05-04T11:02:39.841Z,15.95
2023-05-04T11:03:40.050Z,15.92
2023-05-04T11:04:40.191Z,16.12
2023-05-04T11:05:40.365Z,16.21
2023-05-04T11:06:40.597Z,16.38
2023-05-04T11:07:40.793Z,16.38
2023-05-04T11:08:41.005Z,16.24
2023-05-04T11:09:41.244Z,16.26
2023-05-04T11:10:41.424Z,16.46
2023-05-04T11:11:41.632Z,16.53
2023-05-04T11:12:41.868Z,16.43
2023-05-04T11:13:42.033Z,16.26
2023-05-04T11:14:42.230Z,16.05
2023-05-04T11:15:42.413Z,16.35
2023-05-04T11:16:42.638Z,16.66
2023-05-04T11:17:42.848Z,17.01
2023-05-04T11:18:42.994Z,16.71
2023-05-04T11:19:43.221Z,16.43
2023-05-04T11:20:43.394Z,16.72
2023-05-04T11:21:43.613Z,16.90
2023-05-04T11:22:43.812Z,17.12
2023-05-04T11:23:44.000Z,17.23
2023-05-04T11:24:44.220Z,16.99
2023-05-04T11:25:44.406Z,16.49
2023-05-04T11:26:44.580Z,16.38
2023-05-04T11:27:44.854Z,16.33
2023-05-04T11:28:44.987Z,16.58
2023-05-04T11:29:45.221Z,16.69
2023-05-04T11:30:45.385Z,16.99
2023-05-04T11:31:45.634Z,17.04
2023-05-04T11:32:45.862Z,17.30
2023-05-04T11:33:46.007Z,17.74
2023-05-04T11:34:46.256Z,18.01
2023-05-04T11:35:46.431Z,17.92
2023-05-04T11:36:48.408Z,17.02
2023-05-04T11:37:46.830Z,16.96
2023-05-04T11:38:47.051Z,17.11
2023-05-04T11:39:47.250Z,17.20
2023-05-04T11:40:47.444Z,17.23
2023-05-04T11:41:47.651Z,17.57
2023-05-04T11:42:47.869Z,17.87
2023-05-04T11:43:48.081Z,18.22
2023-05-04T11:44:48.327Z,18.41
2023-05-04T11:45:48.535Z,18.40
2023-05-04T11:46:48.781Z,18.38
2023-05-04T11:47:48.978Z,18.35
2023-05-04T11:48:49.137Z,18.31
2023-05-04T11:49:49.338Z,18.56
2023-05-04T11:50:49.499Z,18.28
2023-05-04T11:51:49.717Z,18.13
2023-05-04T11:52:49.931Z,17.57
2023-05-04T11:53:50.152Z,17.26
2023-05-04T11:54:50.405Z,17.57
2023-05-04T11:55:50.578Z,17.48
2023-05-04T11:56:50.786Z,17.26
2023-05-04T11:57:51.008Z,16.91
2023-05-04T11:58:51.234Z,16.75
2023-05-04T11:59:51.448Z,17.05
2023-05-04T12:00:51.600Z,16.56
2023-05-04T12:01:51.818Z,16.08
2023-05-04T12:02:52.235Z,16.13
2023-05-04T12:03:54.097Z,16.32
2023-05-04T12:04:52.424Z,16.61
2023-05-04T12:05:52.734Z,17.05
2023-05-04T12:06:52.813Z,17.20
2023-05-04T12:07:53.021Z,17.64
2023-05-04T12:08:53.230Z,17.85
2023-05-04T12:09:53.453Z,17.09
2023-05-04T12:10:53.645Z,17.09
2023-05-04T12:11:53.828Z,17.15
2023-05-04T12:12:54.049Z,17.24
2023-05-04T12:13:54.219Z,17.38
2023-05-04T12:14:54.451Z,17.08
2023-05-04T12:15:54.675Z,17.16
2023-05-04T12:16:54.856Z,17.63
2023-05-04T12:17:55.078Z,17.70
2023-05-04T12:18:55.239Z,18.03
2023-05-04T12:19:55.478Z,17.56
2023-05-04T12:20:55.635Z,17.22
2023-05-04T12:21:55.852Z,16.79
2023-05-04T12:22:56.059Z,16.83
2023-05-04T12:23:56.273Z,16.68
2023-05-04T12:24:56.494Z,17.04
2023-05-04T12:25:58.415Z,17.56
2023-05-04T12:26:56.889Z,17.64
2023-05-04T12:27:57.060Z,17.16
2023-05-04T12:28:57.267Z,16.94
2023-05-04T12:29:57.485Z,16.83
2023-05-04T12:30:57.684Z,16.65
2023-05-04T12:31:57.897Z,16.81
2023-05-04T12:32:58.144Z,17.20
2023-05-04T12:33:58.285Z,17.09
2023-05-04T12:34:58.510Z,17.30
2023-05-04T12:35:58.687Z,17.59
2023-05-04T12:36:58.898Z,17.41
2023-05-04T12:37:59.106Z,17.54
2023-05-04T12:38:59.314Z,17.16
2023-05-04T12:39:59.527Z,16.69
2023-05-04T12:40:59.678Z,16.89
2023-05-04T12:41:59.891Z,17.09
2023-05-04T12:43:00.150Z,17.38
2023-05-04T12:44:00.291Z,17.65
2023-05-04T12:45:00.542Z,17.39
2023-05-04T12:46:00.819Z,17.15
2023-05-04T12:47:00.948Z,17.36
2023-05-04T12:48:01.191Z,17.44
2023-05-04T12:49:01.347Z,17.41
2023-05-04T12:50:01.585Z,17.64
2023-05-04T12:51:01.770Z,17.46
2023-05-04T12:52:01.948Z,17.36
2023-05-04T12:53:02.161Z,16.94
2023-05-04T12:54:02.392Z,16.83
2023-05-04T12:55:02.608Z,16.97
2023-05-04T12:56:02.777Z,17.04
2023-05-04T12:57:03.007Z,17.14
2023-05-04T12:58:03.207Z,17.08
2023-05-04T12:59:03.418Z,17.01
2023-05-04T13:00:03.657Z,17.05
2023-05-04T13:01:03.913Z,17.38
2023-05-04T13:02:04.060Z,17.57
2023-05-04T13:03:04.314Z,17.34
2023-05-04T13:04:04.452Z,17.36
2023-05-04T13:05:04.888Z,17.20
2023-05-04T13:06:04.858Z,17.02
2023-05-04T13:07:05.036Z,17.11
2023-05-04T13:08:05.269Z,17.41
2023-05-04T13:09:05.464Z,17.60
2023-05-04T13:10:05.687Z,18.05